Time;durP1;ratioP1;P1;durP2;ratioP2;P2;SDS_P1;SDS_P2;PMS_P1;PMS_P2;Temp;Humidity;BMP_temperature;BMP_pressure;BME280_temperature;BME280_humidity;BME280_pressure;Samples;Min_cycle;Max_cycle;Signal;HPM_P1;HPM_P2
2022/09/28 00:00:24;;;;;;;0.77;0.43;;;;;;;;;;5050710;28;20469;-85
2022/09/28 00:02:50;;;;;;;0.28;0.28;;;;;;;;;;5053596;28;20100;-87
2022/09/28 00:05:15;;;;;;;0.22;0.13;;;;;;;;;;5051270;28;20069;-85
2022/09/28 00:07:41;;;;;;;2.55;0.90;;;;;;;;;;5054059;28;20469;-84
2022/09/28 00:10:07;;;;;;;1.20;1.00;;;;;;;;;;5051712;28;20024;-84
2022/09/28 00:12:33;;;;;;;0.65;0.65;;;;;;;;;;5051259;28;20081;-84
2022/09/28 00:14:58;;;;;;;0.22;0.22;;;;;;;;;;5052803;28;20020;-85
2022/09/28 00:17:25;;;;;;;0.30;0.30;;;;;;;;;;5050942;28;20434;-84
2022/09/28 00:19:51;;;;;;;0.30;0.30;;;;;;;;;;5051418;28;20029;-84
2022/09/28 00:22:17;;;;;;;0.57;0.57;;;;;;;;;;5051768;28;20088;-83
2022/09/28 00:24:43;;;;;;;0.25;0.25;;;;;;;;;;5068242;28;20025;-83
2022/09/28 00:27:09;;;;;;;2.53;0.75;;;;;;;;;;5051282;28;20530;-86
2022/09/28 00:29:36;;;;;;;0.15;0.15;;;;;;;;;;5050990;28;20029;-84
2022/09/28 00:32:12;;;;;;;0.30;0.30;;;;;;;;;;5049645;28;20032;-85
2022/09/28 00:34:44;;;;;;;0.43;0.30;;;;;;;;;;5049354;28;20029;-84
2022/09/28 00:37:11;;;;;;;0.30;0.30;;;;;;;;;;5048513;28;20039;-85
2022/09/28 00:39:40;;;;;;;0.60;0.60;;;;;;;;;;5052179;28;20071;-86
2022/09/28 00:42:41;;;;;;;0.30;0.30;;;;;;;;;;5054385;28;20477;-87
2022/09/28 00:45:08;;;;;;;15.10;0.52;;;;;;;;;;5015814;28;20106;-85
2022/09/28 00:47:55;;;;;;;0.20;0.17;;;;;;;;;;5051242;28;20021;-84
2022/09/28 00:50:35;;;;;;;0.10;0.10;;;;;;;;;;5050287;28;20539;-85
2022/09/28 00:53:11;;;;;;;0.30;0.10;;;;;;;;;;5056031;28;20412;-85
2022/09/28 00:55:50;;;;;;;2.00;0.70;;;;;;;;;;5058219;28;20538;-84
2022/09/28 00:58:23;;;;;;;0.30;0.30;;;;;;;;;;5057380;28;20025;-85
2022/09/28 01:00:49;;;;;;;0.17;0.17;;;;;;;;;;5060274;28;20347;-86
2022/09/28 01:03:15;;;;;;;0.10;0.10;;;;;;;;;;5055416;28;20021;-85
2022/09/28 01:05:42;;;;;;;6.15;0.60;;;;;;;;;;5058109;28;20045;-85
2022/09/28 01:08:09;;;;;;;0.10;0.10;;;;;;;;;;5056505;28;20040;-85
2022/09/28 01:10:34;;;;;;;0.57;0.55;;;;;;;;;;5056404;28;20025;-87
2022/09/28 01:13:00;;;;;;;1.77;0.95;;;;;;;;;;5056128;28;20028;-90
2022/09/28 01:15:28;;;;;;;0.52;0.52;;;;;;;;;;5054889;28;20040;-85
2022/09/28 01:18:12;;;;;;;0.47;0.45;;;;;;;;;;5055717;28;20379;-88
2022/09/28 01:20:54;;;;;;;0.55;0.55;;;;;;;;;;5056140;28;20412;-86
2022/09/28 01:23:22;;;;;;;0.30;0.22;;;;;;;;;;5056251;28;20025;-85
2022/09/28 01:25:53;;;;;;;0.65;0.30;;;;;;;;;;5054621;28;20051;-86
2022/09/28 01:28:26;;;;;;;0.43;0.43;;;;;;;;;;5054995;28;20052;-84
2022/09/28 01:31:06;;;;;;;0.03;0.03;;;;;;;;;;5054065;28;20025;-84
2022/09/28 01:33:38;;;;;;;0.45;0.40;;;;;;;;;;5053425;28;20028;-83
2022/09/28 01:36:12;;;;;;;0.10;0.10;;;;;;;;;;5053817;28;20052;-88
2022/09/28 01:38:48;;;;;;;0.20;0.20;;;;;;;;;;5053829;28;20064;-83
2022/09/28 01:41:16;;;;;;;0.43;0.43;;;;;;;;;;5054041;28;20020;-83
2022/09/28 01:43:47;;;;;;;1.83;0.88;;;;;;;;;;5055003;28;20488;-85
2022/09/28 01:46:20;;;;;;;0.52;0.32;;;;;;;;;;5054916;28;20515;-84
2022/09/28 01:48:58;;;;;;;0.55;0.40;;;;;;;;;;5054338;28;20635;-86
2022/09/28 01:51:38;;;;;;;2.15;1.00;;;;;;;;;;5052282;28;20025;-85
2022/09/28 01:54:12;;;;;;;0.85;0.75;;;;;;;;;;5051904;28;20024;-83
2022/09/28 01:56:51;;;;;;;5.25;0.25;;;;;;;;;;5053171;28;20040;-84
2022/09/28 01:59:29;;;;;;;0.70;0.70;;;;;;;;;;5056095;28;20039;-84
2022/09/28 02:02:05;;;;;;;0.90;0.73;;;;;;;;;;5053678;28;20048;-84
2022/09/28 02:04:52;;;;;;;0.75;0.75;;;;;;;;;;5050851;28;20049;-84
2022/09/28 02:07:41;;;;;;;0.50;0.30;;;;;;;;;;5054786;28;20405;-85
2022/09/28 02:10:21;;;;;;;0.80;0.30;;;;;;;;;;5053818;28;20039;-84
2022/09/28 02:12:50;;;;;;;0.20;0.20;;;;;;;;;;5052648;28;20127;-83
2022/09/28 02:15:22;;;;;;;0.43;0.32;;;;;;;;;;5051888;28;20036;-83
2022/09/28 02:17:48;;;;;;;0.10;0.10;;;;;;;;;;5054855;28;20115;-85
2022/09/28 02:20:14;;;;;;;0.60;0.30;;;;;;;;;;5053387;28;20040;-86
2022/09/28 02:22:48;;;;;;;0.50;0.45;;;;;;;;;;5055664;28;20025;-87
2022/09/28 02:25:29;;;;;;;0.30;0.30;;;;;;;;;;5054717;28;20143;-85
2022/09/28 02:28:04;;;;;;;0.55;0.43;;;;;;;;;;5054052;28;20021;-85
2022/09/28 02:30:32;;;;;;;0.47;0.25;;;;;;;;;;5053656;28;20063;-85
2022/09/28 02:33:08;;;;;;;0.45;0.35;;;;;;;;;;5054368;28;20032;-85
2022/09/28 02:35:34;;;;;;;0.38;0.30;;;;;;;;;;5051102;28;20053;-85
2022/09/28 02:37:59;;;;;;;1.10;0.95;;;;;;;;;;5055470;28;20025;-88
2022/09/28 02:40:30;;;;;;;0.43;0.43;;;;;;;;;;5053710;28;20050;-85
2022/09/28 02:43:10;;;;;;;1.75;0.90;;;;;;;;;;5055692;28;20025;-85
2022/09/28 02:46:03;;;;;;;0.20;0.20;;;;;;;;;;5052394;28;20107;-86
2022/09/28 02:48:49;;;;;;;0.52;0.47;;;;;;;;;;5055970;28;20032;-85
2022/09/28 02:52:01;;;;;;;0.68;0.22;;;;;;;;;;5053617;28;20036;-84
2022/09/28 02:54:58;;;;;;;0.32;0.32;;;;;;;;;;5051312;28;20033;-84
2022/09/28 02:57:38;;;;;;;1.50;1.10;;;;;;;;;;5052499;28;20025;-85
2022/09/28 03:00:13;;;;;;;1.63;1.10;;;;;;;;;;5053873;28;20028;-86
2022/09/28 03:03:16;;;;;;;0.75;0.70;;;;;;;;;;5055497;28;20073;-86
2022/09/28 03:05:44;;;;;;;0.52;0.47;;;;;;;;;;5052028;28;20041;-85
2022/09/28 03:08:25;;;;;;;1.42;0.77;;;;;;;;;;5050362;28;20017;-85
2022/09/28 03:11:22;;;;;;;1.30;0.88;;;;;;;;;;5050897;28;20068;-82
2022/09/28 03:13:48;;;;;;;0.57;0.57;;;;;;;;;;5048219;28;20040;-83
2022/09/28 03:16:17;;;;;;;0.60;0.47;;;;;;;;;;5051342;28;20031;-82
2022/09/28 03:18:43;;;;;;;1.00;0.75;;;;;;;;;;5051460;28;20119;-84
2022/09/28 03:21:10;;;;;;;1.05;0.95;;;;;;;;;;5052090;28;20500;-83
2022/09/28 03:23:36;;;;;;;1.30;1.00;;;;;;;;;;5051427;28;20418;-85
2022/09/28 03:26:02;;;;;;;0.38;0.38;;;;;;;;;;5053720;28;20059;-85
2022/09/28 03:28:28;;;;;;;2.35;1.23;;;;;;;;;;5050320;28;20040;-85
2022/09/28 03:30:54;;;;;;;0.82;0.50;;;;;;;;;;5051752;28;20538;-84
2022/09/28 03:33:19;;;;;;;0.55;0.55;;;;;;;;;;5055480;28;20021;-84
2022/09/28 03:35:46;;;;;;;1.20;0.85;;;;;;;;;;5054069;28;20041;-83
2022/09/28 03:38:12;;;;;;;1.15;0.82;;;;;;;;;;5051475;28;20025;-84
2022/09/28 03:40:37;;;;;;;1.13;0.95;;;;;;;;;;5051874;28;20033;-83
2022/09/28 03:43:03;;;;;;;4.13;1.35;;;;;;;;;;5052412;28;20515;-82
2022/09/28 03:45:28;;;;;;;0.73;0.70;;;;;;;;;;5051905;28;20039;-85
2022/09/28 03:47:55;;;;;;;4.10;1.27;;;;;;;;;;5055288;28;20017;-83
2022/09/28 03:50:21;;;;;;;0.85;0.80;;;;;;;;;;5059989;28;20020;-83
2022/09/28 03:52:46;;;;;;;0.80;0.75;;;;;;;;;;5056631;28;20025;-83
2022/09/28 03:55:12;;;;;;;0.68;0.57;;;;;;;;;;5051987;28;20020;-84
2022/09/28 03:57:37;;;;;;;0.65;0.63;;;;;;;;;;5049962;28;20075;-85
2022/09/28 04:00:04;;;;;;;0.75;0.63;;;;;;;;;;5050862;28;20040;-87
2022/09/28 04:02:30;;;;;;;0.50;0.50;;;;;;;;;;5049934;28;20035;-82
2022/09/28 04:04:55;;;;;;;2.55;0.68;;;;;;;;;;5051785;28;20044;-81
2022/09/28 04:07:21;;;;;;;0.75;0.75;;;;;;;;;;5051843;28;20372;-83
2022/09/28 04:09:46;;;;;;;2.00;1.10;;;;;;;;;;5050815;28;20029;-85
2022/09/28 04:12:12;;;;;;;0.90;0.73;;;;;;;;;;5052215;28;20049;-83
2022/09/28 04:14:37;;;;;;;0.40;0.40;;;;;;;;;;5052264;28;20214;-81
2022/09/28 04:17:03;;;;;;;0.20;0.20;;;;;;;;;;5056990;28;20036;-82
2022/09/28 04:19:29;;;;;;;0.50;0.32;;;;;;;;;;5056319;28;20120;-83
2022/09/28 04:21:54;;;;;;;1.25;0.90;;;;;;;;;;5052342;28;20035;-85
2022/09/28 04:24:20;;;;;;;0.65;0.50;;;;;;;;;;5054332;28;20492;-86
2022/09/28 04:26:45;;;;;;;1.42;0.80;;;;;;;;;;5052357;28;20021;-82
2022/09/28 04:29:17;;;;;;;0.40;0.40;;;;;;;;;;5052417;28;20082;-82
2022/09/28 04:31:51;;;;;;;1.67;1.08;;;;;;;;;;5052932;28;20028;-84
2022/09/28 04:34:19;;;;;;;4.28;1.25;;;;;;;;;;5051559;28;20033;-82
2022/09/28 04:36:46;;;;;;;1.00;0.85;;;;;;;;;;5051008;28;20025;-83
2022/09/28 04:39:13;;;;;;;1.08;0.77;;;;;;;;;;5051628;28;20020;-84
2022/09/28 04:41:39;;;;;;;0.55;0.45;;;;;;;;;;5054944;28;20038;-86
2022/09/28 04:44:05;;;;;;;1.70;1.13;;;;;;;;;;5053288;28;20028;-84
2022/09/28 04:46:31;;;;;;;1.83;1.15;;;;;;;;;;5051498;28;20409;-85
2022/09/28 04:48:56;;;;;;;0.40;0.40;;;;;;;;;;5053131;28;20082;-83
2022/09/28 04:51:22;;;;;;;2.47;0.73;;;;;;;;;;5051403;28;20025;-83
2022/09/28 04:53:47;;;;;;;0.80;0.47;;;;;;;;;;5050475;28;20102;-83
2022/09/28 04:56:15;;;;;;;0.98;0.82;;;;;;;;;;5050742;28;20086;-85
2022/09/28 04:58:41;;;;;;;0.82;0.70;;;;;;;;;;5050407;28;20025;-84
2022/09/28 05:01:11;;;;;;;1.35;0.80;;;;;;;;;;5049454;28;20040;-84
2022/09/28 05:03:36;;;;;;;3.05;1.00;;;;;;;;;;5052821;28;20055;-83
2022/09/28 05:06:02;;;;;;;1.00;0.90;;;;;;;;;;5054849;28;20056;-83
2022/09/28 05:08:28;;;;;;;0.90;0.90;;;;;;;;;;5051393;28;20049;-84
2022/09/28 05:10:58;;;;;;;0.80;0.80;;;;;;;;;;5054135;28;20024;-85
2022/09/28 05:13:27;;;;;;;0.50;0.40;;;;;;;;;;5051210;28;20535;-84
2022/09/28 05:15:54;;;;;;;1.45;1.05;;;;;;;;;;5056324;28;20089;-83
2022/09/28 05:18:20;;;;;;;4.65;1.20;;;;;;;;;;5050670;28;20029;-83
2022/09/28 05:20:45;;;;;;;0.93;0.70;;;;;;;;;;5054060;28;20083;-81
2022/09/28 05:23:12;;;;;;;0.38;0.38;;;;;;;;;;5053284;28;20079;-83
2022/09/28 05:25:38;;;;;;;1.10;0.82;;;;;;;;;;5051250;28;20052;-82
2022/09/28 05:28:05;;;;;;;0.77;0.52;;;;;;;;;;5051747;28;20451;-84
2022/09/28 05:30:30;;;;;;;0.52;0.43;;;;;;;;;;5051639;28;20789;-86
2022/09/28 05:32:56;;;;;;;1.00;0.90;;;;;;;;;;5051892;28;20036;-84
2022/09/28 05:35:21;;;;;;;1.17;1.08;;;;;;;;;;5049555;28;20496;-83
2022/09/28 05:37:47;;;;;;;0.65;0.65;;;;;;;;;;5052740;28;20556;-82
2022/09/28 05:40:13;;;;;;;1.17;0.85;;;;;;;;;;5054966;28;20512;-84
2022/09/28 05:42:39;;;;;;;1.42;1.13;;;;;;;;;;5055419;28;20067;-83
2022/09/28 05:45:05;;;;;;;1.00;0.70;;;;;;;;;;5057822;28;20025;-82
2022/09/28 05:47:42;;;;;;;0.93;0.77;;;;;;;;;;5054647;28;20070;-84
2022/09/28 05:50:10;;;;;;;0.73;0.63;;;;;;;;;;5057595;28;20032;-84
2022/09/28 05:52:37;;;;;;;0.63;0.43;;;;;;;;;;5051776;28;20031;-83
2022/09/28 05:55:04;;;;;;;0.90;0.40;;;;;;;;;;5058241;28;20040;-83
2022/09/28 05:57:29;;;;;;;1.33;1.17;;;;;;;;;;5055402;28;20039;-87
2022/09/28 05:59:55;;;;;;;3.22;1.45;;;;;;;;;;5054923;28;20032;-83
2022/09/28 06:02:21;;;;;;;1.30;1.05;;;;;;;;;;5054783;28;20029;-86
2022/09/28 06:04:48;;;;;;;1.77;1.20;;;;;;;;;;5053414;28;20071;-86
2022/09/28 06:07:14;;;;;;;2.40;1.55;;;;;;;;;;5053834;28;20025;-86
2022/09/28 06:09:39;;;;;;;3.33;1.92;;;;;;;;;;5051974;28;20094;-85
2022/09/28 06:12:05;;;;;;;1.83;1.55;;;;;;;;;;5053489;28;20017;-86
2022/09/28 06:14:30;;;;;;;3.10;1.98;;;;;;;;;;5054706;28;20025;-84
2022/09/28 06:16:55;;;;;;;0.98;0.88;;;;;;;;;;5054655;28;20041;-85
2022/09/28 06:19:21;;;;;;;2.92;1.50;;;;;;;;;;5052733;28;20385;-86
2022/09/28 06:21:46;;;;;;;1.35;0.93;;;;;;;;;;5054477;28;20037;-86
2022/09/28 06:24:12;;;;;;;0.68;0.50;;;;;;;;;;5052865;28;20040;-88
2022/09/28 06:26:37;;;;;;;0.43;0.40;;;;;;;;;;5054350;28;20072;-83
2022/09/28 06:29:03;;;;;;;0.98;0.85;;;;;;;;;;5053059;28;20032;-88
2022/09/28 06:31:30;;;;;;;0.45;0.35;;;;;;;;;;5055095;28;20029;-83
2022/09/28 06:33:55;;;;;;;0.80;0.80;;;;;;;;;;5050244;28;20021;-84
2022/09/28 06:36:21;;;;;;;1.20;1.08;;;;;;;;;;5052661;28;20033;-85
2022/09/28 06:38:46;;;;;;;5.22;1.38;;;;;;;;;;5051751;28;20029;-85
2022/09/28 06:41:12;;;;;;;1.70;1.42;;;;;;;;;;5053782;28;20032;-86
2022/09/28 06:43:38;;;;;;;1.75;1.55;;;;;;;;;;5056253;28;20029;-85
2022/09/28 06:46:05;;;;;;;1.80;1.30;;;;;;;;;;5052276;28;20036;-85
2022/09/28 06:48:32;;;;;;;2.13;1.85;;;;;;;;;;5068850;28;20025;-86
2022/09/28 06:50:58;;;;;;;2.97;2.10;;;;;;;;;;5051899;28;20358;-85
2022/09/28 06:53:24;;;;;;;1.90;1.75;;;;;;;;;;5051857;28;20033;-87
2022/09/28 06:55:49;;;;;;;3.25;2.42;;;;;;;;;;5053638;28;20044;-83
2022/09/28 06:58:18;;;;;;;1.95;1.75;;;;;;;;;;5053281;28;20036;-85
2022/09/28 07:00:44;;;;;;;7.90;3.33;;;;;;;;;;5051850;28;20036;-86
2022/09/28 07:03:14;;;;;;;4.50;2.60;;;;;;;;;;5053120;28;20108;-84
2022/09/28 07:05:44;;;;;;;2.22;1.60;;;;;;;;;;5052008;28;20057;-85
2022/09/28 07:08:11;;;;;;;4.93;1.20;;;;;;;;;;5052678;28;20032;-84
2022/09/28 07:10:41;;;;;;;1.98;1.45;;;;;;;;;;5053308;28;20025;-84
2022/09/28 07:13:07;;;;;;;2.58;1.48;;;;;;;;;;5052435;28;20056;-84
2022/09/28 07:15:32;;;;;;;1.77;1.25;;;;;;;;;;5054888;28;20511;-84
2022/09/28 07:17:59;;;;;;;3.10;1.70;;;;;;;;;;5052712;28;20029;-86
2022/09/28 07:20:25;;;;;;;1.42;1.08;;;;;;;;;;5048979;28;20460;-89
2022/09/28 07:23:01;;;;;;;1.92;1.45;;;;;;;;;;5053982;28;20032;-84
2022/09/28 07:25:31;;;;;;;3.50;2.35;;;;;;;;;;5053860;28;20469;-86
2022/09/28 07:28:01;;;;;;;1.95;1.48;;;;;;;;;;5057126;28;20017;-84
2022/09/28 07:30:27;;;;;;;;;;;;;;;;;;5051533;28;20040;-85
2022/09/28 07:32:53;;;;;;;1.63;1.52;;;;;;;;;;5051173;28;19913;-83
2022/09/28 07:35:21;;;;;;;2.22;1.33;;;;;;;;;;5052113;28;20029;-86
2022/09/28 07:37:46;;;;;;;1.92;1.73;;;;;;;;;;5053081;28;20091;-87
2022/09/28 07:43:03;;;;;;;2.63;1.63;;;;;;;;;;5048869;28;20048;-84
2022/09/28 07:45:28;;;;;;;3.60;2.10;;;;;;;;;;5050740;28;20115;-86
2022/09/28 07:47:54;;;;;;;2.53;1.77;;;;;;;;;;5049217;28;20154;-83
2022/09/28 07:50:21;;;;;;;3.92;2.90;;;;;;;;;;5052522;28;20025;-84
2022/09/28 07:52:46;;;;;;;5.20;3.47;;;;;;;;;;5051962;28;20017;-85
2022/09/28 07:55:12;;;;;;;3.97;2.60;;;;;;;;;;5051745;28;20033;-85
2022/09/28 07:57:38;;;;;;;2.22;1.52;;;;;;;;;;5051220;28;20047;-86
2022/09/28 08:00:07;;;;;;;4.55;3.03;;;;;;;;;;5050162;28;20469;-85
2022/09/28 08:02:33;;;;;;;4.50;2.13;;;;;;;;;;5051169;28;20025;-86
2022/09/28 08:04:59;;;;;;;2.95;2.10;;;;;;;;;;5051595;28;20101;-86
2022/09/28 08:07:24;;;;;;;2.50;2.05;;;;;;;;;;5050925;28;20108;-87
2022/09/28 08:09:50;;;;;;;4.47;2.55;;;;;;;;;;5055585;28;20021;-86
2022/09/28 08:12:18;;;;;;;5.20;3.28;;;;;;;;;;5057721;28;20029;-85
2022/09/28 08:14:44;;;;;;;3.53;2.17;;;;;;;;;;5052138;28;20021;-87
2022/09/28 08:17:10;;;;;;;2.67;1.40;;;;;;;;;;5055197;28;20033;-86
2022/09/28 08:22:19;;;;;;;2.45;2.25;;;;;;;;;;5050409;28;20043;-87
2022/09/28 08:24:46;;;;;;;4.78;3.20;;;;;;;;;;5050200;28;20036;-85
2022/09/28 08:27:13;;;;;;;3.83;1.67;;;;;;;;;;5052344;28;20032;-85
2022/09/28 08:29:38;;;;;;;4.85;2.65;;;;;;;;;;5053933;28;20083;-87
2022/09/28 08:32:07;;;;;;;3.28;2.40;;;;;;;;;;5051207;28;20461;-85
2022/09/28 08:34:36;;;;;;;4.40;2.10;;;;;;;;;;5050804;28;20029;-86
2022/09/28 08:37:02;;;;;;;4.10;2.33;;;;;;;;;;5051471;28;20029;-85
2022/09/28 08:39:27;;;;;;;4.65;1.75;;;;;;;;;;5049951;28;21509;-84
2022/09/28 08:42:08;;;;;;;4.57;2.35;;;;;;;;;;5051627;28;20100;-84
2022/09/28 08:44:44;;;;;;;2.90;2.63;;;;;;;;;;5047621;28;20025;-87
2022/09/28 08:50:12;;;;;;;6.80;2.60;;;;;;;;;;5049568;28;20075;-84
2022/09/28 08:52:39;;;;;;;4.15;2.13;;;;;;;;;;5052196;28;20056;-85
2022/09/28 08:55:16;;;;;;;3.05;1.88;;;;;;;;;;5049833;28;20052;-85
2022/09/28 08:58:00;;;;;;;6.05;3.65;;;;;;;;;;5049578;28;20033;-85
2022/09/28 09:00:53;;;;;;;3.38;1.92;;;;;;;;;;5049490;28;20755;-85
2022/09/28 09:03:22;;;;;;;3.83;1.88;;;;;;;;;;5049830;28;20039;-84
2022/09/28 09:06:18;;;;;;;3.37;2.17;;;;;;;;;;5049719;28;20417;-83
2022/09/28 09:08:53;;;;;;;3.03;2.10;;;;;;;;;;5051219;28;20028;-86
2022/09/28 09:12:05;;;;;;;2.65;1.70;;;;;;;;;;5050288;28;20036;-83
2022/09/28 09:14:49;;;;;;;2.50;1.67;;;;;;;;;;5032081;28;20051;-84
2022/09/28 09:17:40;;;;;;;1.58;1.40;;;;;;;;;;5051070;28;20055;-85
2022/09/28 09:20:18;;;;;;;1.15;0.98;;;;;;;;;;5044984;28;20378;-84
2022/09/28 09:22:57;;;;;;;2.83;1.75;;;;;;;;;;5053399;28;20060;-84
2022/09/28 09:25:27;;;;;;;1.85;1.38;;;;;;;;;;5054386;28;20552;-87
2022/09/28 09:28:31;;;;;;;1.17;1.02;;;;;;;;;;5053481;28;20393;-87
2022/09/28 09:31:07;;;;;;;2.55;1.67;;;;;;;;;;5027393;28;20495;-84
2022/09/28 09:33:51;;;;;;;2.42;0.98;;;;;;;;;;5054965;28;20052;-87
2022/09/28 09:36:26;;;;;;;2.03;1.63;;;;;;;;;;5054791;28;20024;-84
2022/09/28 09:39:06;;;;;;;4.55;1.20;;;;;;;;;;5053208;28;20071;-84
2022/09/28 09:41:37;;;;;;;2.53;1.45;;;;;;;;;;5052964;28;20036;-84
2022/09/28 09:44:48;;;;;;;1.30;0.80;;;;;;;;;;5056470;28;20040;-87
2022/09/28 09:47:19;;;;;;;0.70;0.70;;;;;;;;;;5054088;28;20036;-84
2022/09/28 09:50:10;;;;;;;1.30;1.00;;;;;;;;;;5050828;28;20170;-85
2022/09/28 09:52:56;;;;;;;0.77;0.52;;;;;;;;;;5054392;28;20115;-90
2022/09/28 09:55:39;;;;;;;1.35;1.02;;;;;;;;;;5055092;28;20017;-86
2022/09/28 09:58:23;;;;;;;0.90;0.63;;;;;;;;;;5055401;28;20095;-86
2022/09/28 10:00:52;;;;;;;0.57;0.52;;;;;;;;;;5054894;28;20029;-87
2022/09/28 10:03:27;;;;;;;1.70;1.33;;;;;;;;;;5055342;28;20378;-86
2022/09/28 10:06:16;;;;;;;0.55;0.50;;;;;;;;;;5054391;28;20390;-86
2022/09/28 10:08:48;;;;;;;1.10;1.00;;;;;;;;;;5053438;28;20075;-87
2022/09/28 10:11:25;;;;;;;1.15;0.82;;;;;;;;;;5055402;28;20025;-89
2022/09/28 10:13:50;;;;;;;0.55;0.55;;;;;;;;;;5050720;28;20032;-86
2022/09/28 10:16:17;;;;;;;1.10;0.70;;;;;;;;;;5058950;28;20433;-88
2022/09/28 10:18:43;;;;;;;2.85;1.40;;;;;;;;;;5051930;28;20028;-87
2022/09/28 10:21:17;;;;;;;1.38;0.70;;;;;;;;;;5054902;28;20032;-87
2022/09/28 10:23:44;;;;;;;0.47;0.47;;;;;;;;;;5052170;28;20048;-85
2022/09/28 10:26:22;;;;;;;0.73;0.38;;;;;;;;;;5053146;28;20120;-87
2022/09/28 10:28:52;;;;;;;0.63;0.63;;;;;;;;;;5051046;28;20020;-87
2022/09/28 10:31:34;;;;;;;0.95;0.85;;;;;;;;;;5052930;28;20028;-86
2022/09/28 10:33:59;;;;;;;0.45;0.43;;;;;;;;;;5053399;28;20029;-88
2022/09/28 10:36:25;;;;;;;0.52;0.40;;;;;;;;;;5052533;28;20059;-85
2022/09/28 10:38:50;;;;;;;0.82;0.77;;;;;;;;;;5052344;28;20021;-88
2022/09/28 10:41:17;;;;;;;1.75;0.60;;;;;;;;;;5053727;28;20071;-82
2022/09/28 10:44:04;;;;;;;0.63;0.50;;;;;;;;;;5053160;28;20056;-81
2022/09/28 10:46:32;;;;;;;0.60;0.40;;;;;;;;;;5051369;28;20025;-83
2022/09/28 10:49:02;;;;;;;0.77;0.63;;;;;;;;;;5052462;28;20105;-88
2022/09/28 10:51:46;;;;;;;0.47;0.47;;;;;;;;;;5053595;28;20141;-87
2022/09/28 10:54:15;;;;;;;0.45;0.40;;;;;;;;;;5058133;28;20052;-86
2022/09/28 10:56:41;;;;;;;1.75;0.65;;;;;;;;;;5053798;28;20033;-82
2022/09/28 10:59:28;;;;;;;0.90;0.40;;;;;;;;;;5055768;28;20033;-84
2022/09/28 11:02:11;;;;;;;0.98;0.82;;;;;;;;;;5053283;28;20029;-84
2022/09/28 11:04:41;;;;;;;0.32;0.32;;;;;;;;;;5052736;28;20433;-83
2022/09/28 11:07:16;;;;;;;;;;;;;;;;;;5054630;28;20029;-84
2022/09/28 11:09:46;;;;;;;0.57;0.50;;;;;;;;;;5066016;28;19947;-84
2022/09/28 11:12:22;;;;;;;0.45;0.40;;;;;;;;;;5054257;28;20061;-86
2022/09/28 11:14:52;;;;;;;0.43;0.43;;;;;;;;;;5049504;28;20082;-85
2022/09/28 11:17:29;;;;;;;0.57;0.43;;;;;;;;;;5053432;28;20108;-86
2022/09/28 11:19:57;;;;;;;0.60;0.57;;;;;;;;;;5051297;28;20029;-86
2022/09/28 11:22:35;;;;;;;0.60;0.60;;;;;;;;;;5053258;28;20052;-86
2022/09/28 11:25:23;;;;;;;1.40;0.60;;;;;;;;;;5050586;28;20052;-87
2022/09/28 11:27:51;;;;;;;1.17;0.80;;;;;;;;;;5053117;28;20025;-83
2022/09/28 11:30:43;;;;;;;1.73;0.68;;;;;;;;;;5054440;28;20059;-87
2022/09/28 11:33:16;;;;;;;0.93;0.70;;;;;;;;;;5058821;28;20032;-84
2022/09/28 11:35:59;;;;;;;0.70;0.70;;;;;;;;;;5054152;28;20025;-83
2022/09/28 11:38:34;;;;;;;0.40;0.40;;;;;;;;;;5053710;28;20063;-82
2022/09/28 11:41:32;;;;;;;1.00;0.60;;;;;;;;;;5053367;28;20117;-81
2022/09/28 11:44:07;;;;;;;2.92;0.73;;;;;;;;;;5053091;28;20071;-82
2022/09/28 11:46:53;;;;;;;0.43;0.40;;;;;;;;;;5052904;28;20020;-82
2022/09/28 11:49:18;;;;;;;0.40;0.40;;;;;;;;;;5053833;28;21758;-81
2022/09/28 11:51:45;;;;;;;2.55;0.73;;;;;;;;;;5054188;28;20072;-82
2022/09/28 11:54:30;;;;;;;0.90;0.60;;;;;;;;;;5057741;28;20024;-82
2022/09/28 11:57:00;;;;;;;0.60;0.60;;;;;;;;;;5056469;28;20108;-82
2022/09/28 11:59:31;;;;;;;0.75;0.55;;;;;;;;;;5056757;28;20063;-82
2022/09/28 12:02:01;;;;;;;0.50;0.50;;;;;;;;;;5051784;28;20032;-83
2022/09/28 12:04:40;;;;;;;0.30;0.30;;;;;;;;;;5057792;28;20484;-81
2022/09/28 12:07:18;;;;;;;1.08;0.55;;;;;;;;;;5056387;28;20060;-82
2022/09/28 12:10:09;;;;;;;0.50;0.40;;;;;;;;;;5068428;28;20029;-84
2022/09/28 12:12:34;;;;;;;0.85;0.65;;;;;;;;;;5046861;28;20033;-82
2022/09/28 12:15:16;;;;;;;0.47;0.47;;;;;;;;;;5054661;28;20028;-85
2022/09/28 12:17:51;;;;;;;1.10;0.65;;;;;;;;;;5060438;28;20534;-82
2022/09/28 12:20:25;;;;;;;0.32;0.32;;;;;;;;;;5053381;28;20025;-81
2022/09/28 12:23:13;;;;;;;0.50;0.50;;;;;;;;;;5055435;28;20070;-81
2022/09/28 12:25:53;;;;;;;0.50;0.40;;;;;;;;;;5055966;28;20056;-82
2022/09/28 12:28:42;;;;;;;0.32;0.32;;;;;;;;;;5045664;28;20017;-81
2022/09/28 12:31:16;;;;;;;0.60;0.55;;;;;;;;;;5051508;28;20088;-82
2022/09/28 12:33:47;;;;;;;0.38;0.38;;;;;;;;;;5051514;28;20098;-81
2022/09/28 12:36:31;;;;;;;0.30;0.30;;;;;;;;;;5051306;28;20032;-82
2022/09/28 12:39:09;;;;;;;0.40;0.40;;;;;;;;;;5051423;28;20071;-83
2022/09/28 12:41:38;;;;;;;0.80;0.47;;;;;;;;;;5050167;28;20027;-82
2022/09/28 12:44:16;;;;;;;0.87;0.60;;;;;;;;;;5049708;28;20025;-82
2022/09/28 12:46:54;;;;;;;0.95;0.82;;;;;;;;;;5049269;28;20684;-82
2022/09/28 12:49:29;;;;;;;2.20;0.55;;;;;;;;;;5049591;28;20096;-82
2022/09/28 12:52:03;;;;;;;0.50;0.50;;;;;;;;;;5049274;28;20733;-82
2022/09/28 12:54:54;;;;;;;0.60;0.50;;;;;;;;;;5053336;28;20021;-83
2022/09/28 12:57:35;;;;;;;1.02;0.50;;;;;;;;;;5047813;28;20263;-82
2022/09/28 13:00:24;;;;;;;1.00;0.65;;;;;;;;;;5050774;28;20374;-82
2022/09/28 13:03:21;;;;;;;0.85;0.43;;;;;;;;;;5046540;28;20669;-81
2022/09/28 13:06:27;;;;;;;1.20;0.60;;;;;;;;;;5050602;28;20546;-82
2022/09/28 13:09:23;;;;;;;0.50;0.43;;;;;;;;;;5048267;28;20090;-83
2022/09/28 13:12:15;;;;;;;1.08;0.50;;;;;;;;;;5048618;28;20029;-81
2022/09/28 13:15:05;;;;;;;0.50;0.40;;;;;;;;;;5026765;28;20040;-84
2022/09/28 13:17:37;;;;;;;;;;;;;;;;;;5047248;28;20369;-81
2022/09/28 13:20:15;;;;;;;0.85;0.68;;;;;;;;;;5047307;28;20391;-80
2022/09/28 13:22:49;;;;;;;0.40;0.30;;;;;;;;;;5046603;28;20028;-82
2022/09/28 13:25:18;;;;;;;0.35;0.30;;;;;;;;;;5047168;28;20035;-83
2022/09/28 13:28:04;;;;;;;1.33;0.60;;;;;;;;;;5046211;28;20032;-80
2022/09/28 13:30:32;;;;;;;0.20;0.20;;;;;;;;;;5050647;28;20044;-83
2022/09/28 13:33:01;;;;;;;0.25;0.22;;;;;;;;;;5050725;28;20036;-81
2022/09/28 13:35:27;;;;;;;0.37;0.37;;;;;;;;;;5049106;28;20029;-81
2022/09/28 13:38:14;;;;;;;0.65;0.30;;;;;;;;;;5049870;28;20061;-81
2022/09/28 13:40:59;;;;;;;0.28;0.28;;;;;;;;;;5045487;28;20025;-81
2022/09/28 13:43:33;;;;;;;0.10;0.10;;;;;;;;;;5045782;28;20029;-84
2022/09/28 13:46:09;;;;;;;2.03;0.70;;;;;;;;;;5042526;28;20029;-82
2022/09/28 13:48:50;;;;;;;1.13;0.57;;;;;;;;;;5049675;28;20021;-84
2022/09/28 13:51:36;;;;;;;0.30;0.30;;;;;;;;;;5048604;28;20025;-84
2022/09/28 13:54:29;;;;;;;1.60;0.65;;;;;;;;;;5049382;28;20469;-82
2022/09/28 13:57:14;;;;;;;3.85;0.80;;;;;;;;;;5050466;28;20491;-83
2022/09/28 14:00:07;;;;;;;0.20;0.20;;;;;;;;;;5014191;28;20052;-82
2022/09/28 14:02:39;;;;;;;0.47;0.38;;;;;;;;;;5036197;28;20037;-83
2022/09/28 14:05:30;;;;;;;0.40;0.40;;;;;;;;;;5050213;28;20053;-82
2022/09/28 14:08:08;;;;;;;0.47;0.40;;;;;;;;;;5050724;28;20482;-84
2022/09/28 14:10:55;;;;;;;0.70;0.43;;;;;;;;;;5053481;28;20024;-81
2022/09/28 14:13:39;;;;;;;0.40;0.40;;;;;;;;;;5055109;28;20020;-83
2022/09/28 14:16:17;;;;;;;0.30;0.30;;;;;;;;;;5051812;28;20062;-83
2022/09/28 14:18:47;;;;;;;0.20;0.20;;;;;;;;;;5053714;28;20082;-84
2022/09/28 14:21:21;;;;;;;1.23;0.50;;;;;;;;;;5050694;28;20032;-83
2022/09/28 14:24:12;;;;;;;3.47;0.45;;;;;;;;;;5052331;28;20064;-84
2022/09/28 14:26:44;;;;;;;0.38;0.30;;;;;;;;;;5051790;28;20024;-83
2022/09/28 14:29:27;;;;;;;0.38;0.30;;;;;;;;;;5054806;28;20053;-80
2022/09/28 14:31:55;;;;;;;0.20;0.10;;;;;;;;;;5052608;28;20082;-85
2022/09/28 14:34:42;;;;;;;0.65;0.40;;;;;;;;;;5053712;28;20056;-84
2022/09/28 14:43:33;;;;;;;0.80;0.60;;;;;;;;;;5053374;28;20058;-82
2022/09/28 14:46:11;;;;;;;0.40;0.40;;;;;;;;;;5025573;28;20036;-85
2022/09/28 14:49:02;;;;;;;0.20;0.20;;;;;;;;;;5053144;28;20036;-84
2022/09/28 14:51:32;;;;;;;0.73;0.73;;;;;;;;;;5052245;28;20051;-83
2022/09/28 14:54:06;;;;;;;0.40;0.40;;;;;;;;;;5051224;28;20029;-83
2022/09/28 14:56:39;;;;;;;1.25;0.20;;;;;;;;;;5052458;28;20020;-84
2022/09/28 14:59:09;;;;;;;2.90;0.35;;;;;;;;;;5066026;28;20040;-85
2022/09/28 15:01:35;;;;;;;1.02;0.30;;;;;;;;;;5051172;28;20025;-83
2022/09/28 15:04:03;;;;;;;0.10;0.10;;;;;;;;;;5055291;28;20452;-84
2022/09/28 15:06:46;;;;;;;0.30;0.30;;;;;;;;;;5052717;28;20835;-84
2022/09/28 15:09:33;;;;;;;0.20;0.20;;;;;;;;;;5054854;28;20034;-84
2022/09/28 15:12:06;;;;;;;0.10;0.10;;;;;;;;;;5068752;28;20020;-84
2022/09/28 15:14:40;;;;;;;0.20;0.20;;;;;;;;;;5049543;28;20033;-81
2022/09/28 15:17:11;;;;;;;0.57;0.15;;;;;;;;;;5066708;28;20741;-85
2022/09/28 15:19:53;;;;;;;0.20;0.20;;;;;;;;;;5049925;28;20113;-84
2022/09/28 15:22:20;;;;;;;0.77;0.25;;;;;;;;;;5052835;28;20031;-84
2022/09/28 15:24:58;;;;;;;0.40;0.20;;;;;;;;;;5051508;28;20028;-84
2022/09/28 15:27:25;;;;;;;0.20;0.20;;;;;;;;;;5051453;28;20388;-84
2022/09/28 15:30:27;;;;;;;4.20;0.43;;;;;;;;;;5052830;28;20571;-84
2022/09/28 15:32:55;;;;;;;0.30;0.30;;;;;;;;;;5053323;28;20025;-84